Alto Paraiso de Goias, Brazil
Current Conditions -  °F | °C
As of 2:00 PM on Wednesday 26 Nov 2014 (Local Time) from SBBR Reporting Station
Rain Showers Rain Showers  
Wind Chill: 79°   Ceiling: 2600
Heat Index: 80°   Visibility: 6mi
Dew Point: 63°   Wind: 10mph
Humidity: 57%   Direction: 350°N
Pressure: NA   Gusts: NA
Location:  14.12°S, 47.52°W
Report Text: SBBR 261600Z 35009KT 9999 VCSH BKN026 FEW035TCU SCT070 26/17 Q1016
Loading
Personal Weather Stations






























Interactive Weather Map New forecast layout! Learn more

10-Day Weather Forecast

Advertisements
Track Severe Weather on mobile